createdAt,value
2022-09-04T00:00:13.873Z,72.11
2022-09-04T00:03:15.622Z,72.09
2022-09-04T00:05:56.214Z,72.20
2022-09-04T00:09:01.016Z,71.91
2022-09-04T00:11:50.194Z,72.38
2022-09-04T00:14:29.682Z,72.75
2022-09-04T00:17:14.745Z,72.64
2022-09-04T00:19:56.272Z,72.43
2022-09-04T00:22:38.082Z,72.69
2022-09-04T00:25:08.598Z,72.47
2022-09-04T00:27:45.310Z,72.87
2022-09-04T00:30:22.010Z,72.50
2022-09-04T00:33:14.611Z,72.47
2022-09-04T00:35:57.548Z,72.17
2022-09-04T00:38:53.892Z,72.63
2022-09-04T00:41:43.207Z,72.61
2022-09-04T00:44:37.932Z,72.29
2022-09-04T00:47:27.169Z,72.26
2022-09-04T00:50:14.772Z,72.43
2022-09-04T00:53:15.961Z,72.51
2022-09-04T00:55:57.611Z,72.66
2022-09-04T00:59:15.965Z,72.77
2022-09-04T01:01:47.903Z,73.26
2022-09-04T01:04:36.572Z,73.02
2022-09-04T01:07:40.177Z,72.84
2022-09-04T01:10:34.403Z,73.57
2022-09-04T01:13:42.172Z,73.44
2022-09-04T01:16:41.567Z,73.74
2022-09-04T01:19:34.663Z,73.34
2022-09-04T01:22:47.550Z,73.44
2022-09-04T01:25:48.075Z,73.46
2022-09-04T01:29:07.407Z,73.41
2022-09-04T01:31:56.037Z,73.63
2022-09-04T01:34:47.820Z,73.73
2022-09-04T01:44:19.614Z,74.03
2022-09-04T01:47:20.734Z,74.32
2022-09-04T02:04:51.715Z,74.50
2022-09-04T02:10:39.651Z,75.21
2022-09-04T02:13:45.079Z,74.86
2022-09-04T02:16:47.454Z,75.03
2022-09-04T02:19:29.234Z,75.02
2022-09-04T02:22:12.832Z,74.97
2022-09-04T02:24:49.597Z,74.52
2022-09-04T02:27:55.247Z,74.63
2022-09-04T02:30:22.469Z,74.92
2022-09-04T02:33:20.316Z,74.77
2022-09-04T02:36:06.151Z,75.28
2022-09-04T02:39:00.150Z,74.91
2022-09-04T02:41:42.344Z,74.89
2022-09-04T02:44:48.806Z,74.48
2022-09-04T02:47:47.982Z,75.03
2022-09-04T02:50:48.050Z,74.84
2022-09-04T02:53:33.314Z,74.88
2022-09-04T02:56:47.900Z,74.72
2022-09-04T02:59:30.433Z,74.80
2022-09-04T03:02:03.396Z,74.97
2022-09-04T03:05:00.795Z,74.94
2022-09-04T03:07:33.630Z,74.79
2022-09-04T03:10:21.336Z,74.97
2022-09-04T03:12:56.855Z,75.05
2022-09-04T03:16:05.878Z,74.90
2022-09-04T03:18:59.392Z,75.16
2022-09-04T03:21:42.129Z,75.16
2022-09-04T03:24:29.138Z,74.92
2022-09-04T03:27:04.708Z,74.96
2022-09-04T03:29:51.380Z,74.78
2022-09-04T03:32:30.757Z,74.92
2022-09-04T03:35:24.516Z,75.13
2022-09-04T03:38:20.469Z,74.65
2022-09-04T03:41:25.306Z,74.81
2022-09-04T03:44:18.451Z,75.45
2022-09-04T03:47:00.699Z,74.89
2022-09-04T03:50:05.575Z,75.04
2022-09-04T03:56:12.739Z,75.10
2022-09-04T03:58:51.570Z,74.81
2022-09-04T04:01:45.710Z,75.21
2022-09-04T04:04:35.893Z,75.00
2022-09-04T04:07:29.010Z,75.22
2022-09-04T04:10:33.720Z,75.48
2022-09-04T04:13:10.340Z,75.24
2022-09-04T04:15:43.301Z,75.34
2022-09-04T04:18:32.514Z,75.40
2022-09-04T04:21:11.251Z,75.96
2022-09-04T04:24:32.938Z,75.46
2022-09-04T04:27:28.115Z,75.84
2022-09-04T04:29:55.295Z,76.25
2022-09-04T04:32:46.117Z,75.76
2022-09-04T04:35:29.814Z,76.42
2022-09-04T04:38:35.052Z,75.84
2022-09-04T04:41:08.491Z,76.55
2022-09-04T04:44:17.595Z,76.40
2022-09-04T04:47:18.271Z,76.02
2022-09-04T04:50:18.800Z,75.94
2022-09-04T04:53:46.244Z,76.04
2022-09-04T04:56:45.959Z,76.18
2022-09-04T04:59:23.403Z,76.43
2022-09-04T05:02:10.199Z,76.03
2022-09-04T05:04:49.291Z,76.58
2022-09-04T05:07:34.783Z,76.12
2022-09-04T05:10:19.031Z,76.19
2022-09-04T05:13:18.236Z,75.91
2022-09-04T05:16:30.488Z,76.67
2022-09-04T05:19:15.731Z,76.63
2022-09-04T05:22:22.985Z,76.28
2022-09-04T05:25:30.782Z,76.95
2022-09-04T05:28:28.546Z,76.88
2022-09-04T05:31:09.529Z,76.75
2022-09-04T05:33:55.412Z,76.45
2022-09-04T05:36:45.303Z,76.94
2022-09-04T05:39:44.833Z,77.23
2022-09-04T05:43:08.095Z,77.72
2022-09-04T05:46:03.190Z,77.79
2022-09-04T05:48:52.905Z,77.82
2022-09-04T05:51:50.105Z,78.06
2022-09-04T05:54:38.352Z,78.30
2022-09-04T05:57:32.086Z,78.12
2022-09-04T06:00:16.291Z,78.26
2022-09-04T06:02:49.361Z,78.85
2022-09-04T06:06:03.030Z,78.38
2022-09-04T06:08:49.389Z,78.89
2022-09-04T06:11:48.534Z,78.89
2022-09-04T06:15:01.479Z,79.01
2022-09-04T06:17:51.742Z,79.53
2022-09-04T06:20:45.087Z,79.52
2022-09-04T06:23:23.771Z,79.14
2022-09-04T06:26:13.025Z,78.82
2022-09-04T06:29:05.497Z,79.67
2022-09-04T06:31:50.023Z,79.47
2022-09-04T06:34:45.180Z,79.57
2022-09-04T06:37:20.619Z,79.27
2022-09-04T06:40:07.056Z,78.92
2022-09-04T06:43:19.487Z,78.46
2022-09-04T06:46:13.564Z,78.89
2022-09-04T06:49:18.108Z,78.96
2022-09-04T06:51:56.849Z,78.67
2022-09-04T06:55:04.307Z,78.67
2022-09-04T06:57:52.910Z,78.51
2022-09-04T07:00:20.414Z,79.01
2022-09-04T07:03:25.593Z,78.72
2022-09-04T07:06:12.965Z,78.48
2022-09-04T07:09:28.259Z,78.91
2022-09-04T07:12:23.671Z,79.14
2022-09-04T07:15:32.978Z,79.22
2022-09-04T07:18:48.388Z,78.68
2022-09-04T07:21:39.312Z,79.00
2022-09-04T07:24:38.794Z,78.82
2022-09-04T07:27:55.914Z,79.87
2022-09-04T07:30:27.688Z,79.70
2022-09-04T07:32:58.919Z,80.00
2022-09-04T07:35:58.371Z,79.93
2022-09-04T07:38:34.942Z,79.73
2022-09-04T07:41:17.596Z,79.83
2022-09-04T07:43:55.230Z,80.07
2022-09-04T07:46:41.303Z,79.92
2022-09-04T07:49:39.010Z,79.29
2022-09-04T07:52:54.164Z,79.34
2022-09-04T07:55:41.834Z,79.36
2022-09-04T07:58:33.722Z,78.88
2022-09-04T08:01:26.544Z,78.96
2022-09-04T08:04:03.063Z,77.92
2022-09-04T08:06:44.240Z,78.12
2022-09-04T08:10:03.290Z,78.16
2022-09-04T08:13:02.635Z,77.77
2022-09-04T08:15:47.416Z,77.66
2022-09-04T08:18:27.282Z,77.27
2022-09-04T08:21:16.587Z,77.39
2022-09-04T08:24:05.520Z,77.15
2022-09-04T08:27:04.113Z,76.58
2022-09-04T08:30:11.257Z,76.44
2022-09-04T08:33:03.734Z,75.89
2022-09-04T08:36:10.486Z,76.53
2022-09-04T08:38:55.546Z,75.62
2022-09-04T08:41:48.461Z,76.14
2022-09-04T08:44:24.250Z,76.50
2022-09-04T08:47:18.171Z,76.43
2022-09-04T08:50:37.405Z,76.11
2022-09-04T08:53:29.294Z,75.78
2022-09-04T08:56:06.388Z,75.48
2022-09-04T08:59:17.297Z,75.51
2022-09-04T09:02:29.588Z,75.54
2022-09-04T09:05:25.863Z,75.40
2022-09-04T09:08:36.072Z,75.08
2022-09-04T09:11:19.944Z,74.31
2022-09-04T09:14:05.716Z,74.11
2022-09-04T09:17:18.768Z,73.59
2022-09-04T09:20:10.004Z,73.71
2022-09-04T09:23:21.491Z,73.86
2022-09-04T09:26:30.966Z,74.32
2022-09-04T09:30:09.456Z,73.46
2022-09-04T09:33:04.108Z,72.53
2022-09-04T09:36:08.020Z,72.66
2022-09-04T09:38:59.452Z,72.37
2022-09-04T09:41:44.224Z,72.61
2022-09-04T09:44:58.692Z,71.71
2022-09-04T09:48:02.800Z,72.15
2022-09-04T09:51:06.600Z,71.14
2022-09-04T09:54:25.255Z,70.12
2022-09-04T09:57:33.202Z,69.71
2022-09-04T10:00:15.374Z,70.41
2022-09-04T10:03:07.352Z,70.24
2022-09-04T10:05:44.942Z,69.96
2022-09-04T10:08:56.745Z,68.74
2022-09-04T10:12:21.429Z,69.43
2022-09-04T10:15:21.860Z,68.31
2022-09-04T10:18:41.355Z,67.81
2022-09-04T10:21:35.821Z,67.29
2022-09-04T10:24:10.322Z,67.45
2022-09-04T10:26:56.843Z,66.54
2022-09-04T10:29:50.831Z,66.10
2022-09-04T10:32:57.023Z,65.76
2022-09-04T10:36:06.365Z,65.19
2022-09-04T10:39:01.182Z,65.11
2022-09-04T10:42:05.517Z,64.95
2022-09-04T10:45:02.069Z,65.15
2022-09-04T10:47:51.318Z,65.15
2022-09-04T10:50:46.286Z,64.98
2022-09-04T10:53:31.554Z,64.04
2022-09-04T10:56:09.273Z,65.09
2022-09-04T10:58:54.705Z,64.63
2022-09-04T11:01:58.769Z,64.51
2022-09-04T11:05:08.469Z,64.45
2022-09-04T11:07:52.558Z,63.93
2022-09-04T11:10:44.893Z,63.57
2022-09-04T11:14:12.139Z,63.59
2022-09-04T11:16:57.317Z,63.51
2022-09-04T11:20:18.202Z,61.24
2022-09-04T11:23:22.810Z,61.23
2022-09-04T11:26:06.303Z,61.56
2022-09-04T11:29:24.819Z,61.95
2022-09-04T12:11:46.871Z,57.46
2022-09-04T12:14:42.648Z,58.71
2022-09-04T12:17:32.511Z,58.02
2022-09-04T12:20:49.958Z,57.60
2022-09-04T12:23:52.104Z,56.55
2022-09-04T12:26:31.534Z,55.50
2022-09-04T12:29:27.287Z,56.02
2022-09-04T12:32:31.642Z,56.27
2022-09-04T12:35:33.636Z,55.30
2022-09-04T12:38:25.057Z,55.42
2022-09-04T12:41:23.111Z,56.00
2022-09-04T12:44:23.815Z,56.44
2022-09-04T12:47:02.898Z,55.94
2022-09-04T12:50:10.133Z,55.65
2022-09-04T12:52:53.272Z,55.62
2022-09-04T12:56:03.177Z,54.12
2022-09-04T12:58:47.973Z,54.12
2022-09-04T13:02:03.008Z,53.49
2022-09-04T13:04:55.809Z,49.93
2022-09-04T13:07:52.204Z,51.60
2022-09-04T13:10:22.770Z,52.09
2022-09-04T13:13:30.146Z,52.81
2022-09-04T13:16:42.513Z,52.68
2022-09-04T13:19:20.949Z,50.92
2022-09-04T13:22:15.989Z,51.69
2022-09-04T13:25:27.331Z,52.45
2022-09-04T13:28:30.436Z,51.27
2022-09-04T13:31:35.483Z,51.80
2022-09-04T13:34:24.007Z,50.77
2022-09-04T13:37:13.723Z,49.41
2022-09-04T13:39:51.995Z,48.35
2022-09-04T13:42:48.588Z,48.91
2022-09-04T13:45:23.777Z,49.52
2022-09-04T13:48:01.168Z,49.54
2022-09-04T13:50:52.312Z,47.28
2022-09-04T13:53:35.550Z,47.02
2022-09-04T13:56:15.636Z,47.30
2022-09-04T13:58:51.417Z,46.12
2022-09-04T14:01:25.899Z,46.35
2022-09-04T14:04:07.856Z,45.85
2022-09-04T14:06:37.171Z,47.17
2022-09-04T14:09:06.270Z,46.21
2022-09-04T14:11:45.789Z,46.69
2022-09-04T14:14:37.526Z,48.12
2022-09-04T14:17:09.403Z,48.41
2022-09-04T14:20:03.833Z,47.25
2022-09-04T14:22:58.367Z,47.78
2022-09-04T14:25:50.992Z,48.18
2022-09-04T14:28:43.789Z,48.34
2022-09-04T14:31:33.953Z,47.47
2022-09-04T14:34:52.144Z,47.31
2022-09-04T14:38:05.730Z,47.69
2022-09-04T14:40:48.545Z,47.28
2022-09-04T14:43:44.620Z,47.27
2022-09-04T14:46:48.521Z,47.28
2022-09-04T14:49:23.983Z,47.52
2022-09-04T14:51:56.455Z,47.86
2022-09-04T14:54:28.377Z,47.06
2022-09-04T14:57:02.679Z,46.85
2022-09-04T14:59:41.333Z,46.31
2022-09-04T15:02:21.603Z,46.83
2022-09-04T15:05:24.478Z,46.73
2022-09-04T15:07:56.270Z,47.20
2022-09-04T15:10:50.873Z,46.69
2022-09-04T15:13:33.508Z,46.21
2022-09-04T15:16:21.329Z,46.86
2022-09-04T15:19:17.258Z,46.87
2022-09-04T15:21:58.726Z,45.89
2022-09-04T15:24:31.608Z,45.80
2022-09-04T15:27:05.672Z,46.25
2022-09-04T15:29:51.585Z,46.80
2022-09-04T15:32:22.987Z,46.94
2022-09-04T15:35:06.461Z,47.11
2022-09-04T15:37:35.231Z,47.29
2022-09-04T15:40:32.283Z,47.10
2022-09-04T15:43:15.480Z,46.78
2022-09-04T15:45:55.371Z,46.21
2022-09-04T15:48:48.178Z,46.70
2022-09-04T15:51:28.658Z,47.32
2022-09-04T15:54:10.787Z,47.98
2022-09-04T15:56:45.975Z,48.28
2022-09-04T15:59:23.226Z,48.74
2022-09-04T16:02:07.652Z,48.45
2022-09-04T16:05:03.323Z,47.95
2022-09-04T16:07:49.522Z,48.45
2022-09-04T16:10:25.816Z,48.62
2022-09-04T16:12:59.455Z,49.07
2022-09-04T16:16:04.134Z,48.42
2022-09-04T16:18:37.752Z,48.77
2022-09-04T16:21:48.500Z,48.28
2022-09-04T16:24:29.779Z,48.30
2022-09-04T16:26:57.828Z,48.30
2022-09-04T16:29:32.762Z,48.45
2022-09-04T16:31:59.839Z,49.10
2022-09-04T16:34:43.347Z,49.07
2022-09-04T16:37:18.912Z,49.56
2022-09-04T16:39:57.358Z,48.95
2022-09-04T16:42:41.783Z,48.43
2022-09-04T16:45:20.021Z,48.64
2022-09-04T16:48:01.925Z,49.09
2022-09-04T16:51:15.881Z,49.29
2022-09-04T16:53:58.913Z,49.36
2022-09-04T16:56:49.786Z,49.06
2022-09-04T16:59:32.256Z,49.87
2022-09-04T17:02:37.670Z,49.85
2022-09-04T17:05:28.088Z,50.66
2022-09-04T17:08:33.919Z,50.83
2022-09-04T17:11:14.107Z,51.91
2022-09-04T17:13:52.266Z,52.63
2022-09-04T17:16:25.418Z,53.10
2022-09-04T17:18:54.764Z,52.96
2022-09-04T17:26:25.343Z,53.02
2022-09-04T17:29:00.161Z,52.76
2022-09-04T17:29:18.805Z,52.53
2022-09-04T17:30:56.518Z,53.25
2022-09-04T17:37:37.014Z,52.63
2022-09-04T17:40:49.398Z,53.35
2022-09-04T17:40:57.148Z,53.34
2022-09-04T17:43:22.327Z,53.92
2022-09-04T17:46:29.372Z,54.68
2022-09-04T17:48:56.866Z,54.44
2022-09-04T17:51:33.688Z,54.40
2022-09-04T17:54:13.503Z,54.24
2022-09-04T17:57:12.714Z,54.37
2022-09-04T17:59:58.824Z,54.49
2022-09-04T18:02:42.968Z,54.76
2022-09-04T18:05:42.557Z,54.63
2022-09-04T18:08:32.787Z,54.63
2022-09-04T18:11:17.997Z,54.71
2022-09-04T18:14:14.168Z,54.83
2022-09-04T18:17:11.705Z,55.31
2022-09-04T18:19:48.964Z,55.09
2022-09-04T18:22:52.983Z,55.75
2022-09-04T18:25:53.159Z,55.67
2022-09-04T18:30:27.463Z,56.14
2022-09-04T18:37:11.546Z,56.24
2022-09-04T18:37:17.804Z,56.98
2022-09-04T18:37:59.835Z,56.83
2022-09-04T18:43:18.204Z,57.25
2022-09-04T18:50:24.568Z,57.27
2022-09-04T18:50:36.248Z,58.10
2022-09-04T18:50:46.885Z,57.55
2022-09-04T18:52:43.172Z,58.24
2022-09-04T18:55:24.397Z,58.26
2022-09-04T18:58:37.109Z,58.28
2022-09-04T19:01:14.151Z,58.56
2022-09-04T19:04:18.541Z,58.94
2022-09-04T19:07:17.970Z,59.09
2022-09-04T19:09:55.362Z,59.32
2022-09-04T19:12:36.941Z,59.92
2022-09-04T19:16:04.049Z,60.07
2022-09-04T19:18:31.430Z,60.27
2022-09-04T19:21:14.682Z,60.53
2022-09-04T19:23:56.292Z,60.90
2022-09-04T19:26:29.785Z,60.49
2022-09-04T19:29:14.407Z,60.89
2022-09-04T19:31:52.847Z,61.34
2022-09-04T19:34:56.958Z,61.40
2022-09-04T19:40:44.717Z,61.91
2022-09-04T19:45:56.803Z,62.59
2022-09-04T19:46:26.594Z,62.73
2022-09-04T19:46:44.047Z,62.08
2022-09-04T19:51:38.834Z,62.54
2022-09-04T19:53:34.184Z,62.62
2022-09-04T19:55:23.907Z,62.83
2022-09-04T19:58:25.561Z,63.38
2022-09-04T20:00:59.434Z,62.84
2022-09-04T20:03:34.411Z,62.71
2022-09-04T20:06:20.789Z,63.08
2022-09-04T20:09:02.978Z,63.10
2022-09-04T20:11:57.704Z,62.61
2022-09-04T20:14:40.887Z,63.21
2022-09-04T20:17:32.817Z,63.22
2022-09-04T20:20:04.234Z,63.21
2022-09-04T20:22:48.603Z,63.10
2022-09-04T20:25:21.522Z,62.95
2022-09-04T20:28:29.123Z,63.48
2022-09-04T20:31:33.268Z,63.69
2022-09-04T20:34:32.230Z,64.09
2022-09-04T20:37:31.856Z,64.15
2022-09-04T20:40:36.483Z,63.80
2022-09-04T20:43:03.313Z,63.95
2022-09-04T20:48:07.715Z,64.18
2022-09-04T20:52:49.567Z,63.64
2022-09-04T20:53:06.323Z,64.36
2022-09-04T20:55:03.292Z,64.21
2022-09-04T21:02:44.548Z,63.96
2022-09-04T21:03:17.249Z,64.53
2022-09-04T21:05:01.396Z,64.56
2022-09-04T21:07:54.135Z,64.74
2022-09-04T21:10:35.982Z,64.54
2022-09-04T21:13:19.105Z,64.90
2022-09-04T21:15:45.972Z,65.20
2022-09-04T21:19:28.759Z,65.02
2022-09-04T21:22:33.182Z,64.88
2022-09-04T21:25:37.499Z,65.09
2022-09-04T21:28:35.143Z,65.00
2022-09-04T21:31:54.361Z,65.80
2022-09-04T21:35:02.183Z,65.38
2022-09-04T21:37:51.619Z,65.13
2022-09-04T21:40:51.251Z,65.83
2022-09-04T21:43:49.973Z,65.79
2022-09-04T21:46:57.724Z,65.73
2022-09-04T21:50:09.671Z,65.99
2022-09-04T21:53:05.420Z,66.68
2022-09-04T22:00:00.710Z,66.83
2022-09-04T22:02:39.477Z,66.23
2022-09-04T22:02:51.355Z,66.13
2022-09-04T22:05:27.089Z,67.31
2022-09-04T22:13:32.066Z,66.73
2022-09-04T22:13:43.202Z,67.53
2022-09-04T22:14:54.095Z,67.50
2022-09-04T22:17:37.661Z,67.11
2022-09-04T22:20:44.496Z,67.60
2022-09-04T22:23:31.432Z,67.58
2022-09-04T22:26:41.059Z,67.90
2022-09-04T22:29:40.325Z,67.55
2022-09-04T22:32:20.040Z,67.45
2022-09-04T22:35:20.151Z,67.77
2022-09-04T22:38:33.626Z,67.89
2022-09-04T22:41:21.215Z,67.37
2022-09-04T22:44:12.232Z,68.26
2022-09-04T22:47:26.168Z,68.17
2022-09-04T22:50:34.322Z,68.39
2022-09-04T22:53:27.440Z,68.43
2022-09-04T22:56:23.167Z,68.39
2022-09-04T22:58:55.651Z,68.09
2022-09-04T23:02:14.197Z,68.72
2022-09-04T23:05:02.271Z,68.74
2022-09-04T23:13:44.349Z,68.72
2022-09-04T23:13:54.156Z,68.71
2022-09-04T23:15:11.883Z,69.06
2022-09-04T23:17:42.033Z,68.85
2022-09-04T23:26:33.529Z,68.74
2022-09-04T23:26:44.146Z,68.91
2022-09-04T23:27:52.041Z,69.22
2022-09-04T23:30:27.148Z,69.40
2022-09-04T23:33:27.958Z,70.08
2022-09-04T23:36:01.822Z,70.23
2022-09-04T23:38:57.194Z,69.69
2022-09-04T23:41:48.811Z,69.92
2022-09-04T23:44:48.264Z,70.56
2022-09-04T23:47:48.197Z,70.76
2022-09-04T23:51:16.603Z,70.18
2022-09-04T23:54:25.408Z,70.59
2022-09-04T23:57:26.002Z,70.71
